Time;durP1;ratioP1;P1;durP2;ratioP2;P2;SDS_P1;SDS_P2;PMS_P1;PMS_P2;Temp;Humidity;BMP_temperature;BMP_pressure;BME280_temperature;BME280_humidity;BME280_pressure;Samples;Min_cycle;Max_cycle;Signal;HPM_P1;HPM_P2
2023/11/07 00:00:21;;;;;;;;;;;;;;;5.24;100.00;96158.84;5084354;28;19967;-72
2023/11/07 00:02:48;;;;;;;;;;;;;;;5.22;100.00;96155.63;5084623;28;19956;-72
2023/11/07 00:05:14;;;;;;;;;;;;;;;5.21;100.00;96167.03;5083276;28;19968;-72
2023/11/07 00:07:40;;;;;;;;;;;;;;;5.19;100.00;96154.22;5084463;28;19962;-71
2023/11/07 00:10:07;;;;;;;;;;;;;;;5.17;100.00;96160.63;5084592;28;19983;-72
2023/11/07 00:12:32;;;;;;;;;;;;;;;5.15;100.00;96158.19;5084025;28;19952;-79
2023/11/07 00:14:58;;;;;;;;;;;;;;;5.13;100.00;96157.59;5082862;28;19960;-73
2023/11/07 00:17:24;;;;;;;;;;;;;;;5.12;100.00;96155.16;5084044;28;19942;-73
2023/11/07 00:19:50;;;;;;;;;;;;;;;5.08;100.00;96144.34;5084646;28;20003;-73
2023/11/07 00:22:16;;;;;;;;;;;;;;;5.05;100.00;96153.31;5082971;28;19947;-72
2023/11/07 00:24:43;;;;;;;;;;;;;;;5.05;100.00;96149.94;5084331;28;19959;-72
2023/11/07 00:27:09;;;;;;;;;;;;;;;5.05;100.00;96147.31;5085739;28;19960;-73
2023/11/07 00:29:35;;;;;;;;;;;;;;;5.04;100.00;96140.50;5087299;28;19956;-79
2023/11/07 00:32:01;;;;;;;;;;;;;;;5.01;100.00;96139.09;5087194;28;19957;-72
2023/11/07 00:34:27;;;;;;;;;;;;;;;4.99;100.00;96142.88;5088261;28;19956;-70
2023/11/07 00:36:53;;;;;;;;;;;;;;;4.97;100.00;96143.06;5088264;28;19996;-69
2023/11/07 00:39:19;;;;;;;;;;;;;;;4.95;100.00;96147.66;5088356;28;20238;-70
2023/11/07 00:41:45;;;;;;;;;;;;;;;4.92;100.00;96149.84;5087793;28;20129;-70
2023/11/07 00:44:11;;;;;;;;;;;;;;;4.90;100.00;96155.22;5088329;28;19994;-70
2023/11/07 00:46:37;;;;;;;;;;;;;;;4.89;100.00;96151.00;5088500;28;20225;-69
2023/11/07 00:49:04;;;;;;;;;;;;;;;4.86;100.00;96157.38;5088166;28;19958;-72
2023/11/07 00:51:30;;;;;;;;;;;;;;;4.85;100.00;96150.59;5086730;28;19955;-74
2023/11/07 00:53:56;;;;;;;;;;;;;;;4.83;100.00;96146.56;5087114;28;19954;-73
2023/11/07 00:56:22;;;;;;;;;;;;;;;4.80;100.00;96152.94;5086610;28;19955;-74
2023/11/07 00:58:48;;;;;;;;;;;;;;;4.79;100.00;96158.34;5087736;28;19953;-74
2023/11/07 01:01:16;;;;;;;;;;;;;;;4.75;100.00;96160.50;5087894;28;20019;-74
2023/11/07 01:03:43;;;;;;;;;;;;;;;4.72;100.00;96155.69;5087910;28;20025;-74
2023/11/07 01:06:09;;;;;;;;;;;;;;;4.69;100.00;96158.66;5087870;28;19958;-75
2023/11/07 01:08:35;;;;;;;;;;;;;;;4.66;100.00;96154.66;5087798;28;20245;-79
2023/11/07 01:11:01;;;;;;;;;;;;;;;4.64;100.00;96153.22;5087833;28;19956;-75
2023/11/07 01:13:27;;;;;;;;;;;;;;;4.62;100.00;96156.03;5086392;28;19952;-76
2023/11/07 01:15:53;;;;;;;;;;;;;;;4.59;100.00;96156.38;5087658;28;19943;-76
2023/11/07 01:18:19;;;;;;;;;;;;;;;4.61;100.00;96158.78;5087056;28;19958;-77
2023/11/07 01:20:45;;;;;;;;;;;;;;;4.59;100.00;96161.56;5087106;28;19967;-76
2023/11/07 01:23:14;;;;;;;;;;;;;;;4.58;100.00;96157.38;5087583;28;20019;-75
2023/11/07 01:25:40;;;;;;;;;;;;;;;4.55;100.00;96162.94;5087233;28;19976;-71
2023/11/07 01:28:06;;;;;;;;;;;;;;;4.52;100.00;96170.31;5087229;28;19951;-72
2023/11/07 01:30:32;;;;;;;;;;;;;;;4.48;100.00;96157.69;5087200;28;20243;-73
2023/11/07 01:32:58;;;;;;;;;;;;;;;4.45;100.00;96160.66;5087234;28;19955;-73
2023/11/07 01:35:24;;;;;;;;;;;;;;;4.42;100.00;96160.22;5087336;28;19961;-72
2023/11/07 01:37:53;;;;;;;;;;;;;;;4.42;100.00;96157.63;5086971;28;19950;-72
2023/11/07 01:40:19;;;;;;;;;;;;;;;4.41;100.00;96161.19;5086799;28;19984;-72
2023/11/07 01:42:45;;;;;;;;;;;;;;;4.41;100.00;96158.59;5087159;28;19958;-72
2023/11/07 01:45:12;;;;;;;;;;;;;;;4.39;100.00;96164.00;5086244;28;19959;-72
2023/11/07 01:47:39;;;;;;;;;;;;;;;4.39;100.00;96161.41;5087412;28;20132;-71
2023/11/07 01:50:08;;;;;;;;;;;;;;;4.39;100.00;96150.19;5085724;28;20015;-72
2023/11/07 01:52:34;;;;;;;;;;;;;;;4.38;100.00;96157.19;5087072;28;19948;-72
2023/11/07 01:55:01;;;;;;;;;;;;;;;4.36;100.00;96156.56;5086719;28;19958;-72
2023/11/07 01:57:27;;;;;;;;;;;;;;;4.34;100.00;96161.16;5086430;28;19954;-71
2023/11/07 01:59:53;;;;;;;;;;;;;;;4.36;100.00;96163.56;5086667;28;19953;-71
2023/11/07 02:02:21;;;;;;;;;;;;;;;4.37;100.00;96167.78;5087282;28;19974;-69
2023/11/07 02:04:47;;;;;;;;;;;;;;;4.39;100.00;96171.78;5086921;28;20252;-71
2023/11/07 02:07:13;;;;;;;;;;;;;;;4.41;100.00;96166.41;5086757;28;19957;-71
2023/11/07 02:09:39;;;;;;;;;;;;;;;4.41;100.00;96162.03;5086660;28;19951;-71
2023/11/07 02:12:05;;;;;;;;;;;;;;;4.45;100.00;96171.06;5086175;28;19951;-71
2023/11/07 02:14:36;;;;;;;;;;;;;;;4.46;100.00;96170.06;5086218;28;19960;-71
2023/11/07 02:17:05;;;;;;;;;;;;;;;4.46;100.00;96175.25;5086218;28;19957;-71
2023/11/07 02:19:31;;;;;;;;;;;;;;;4.43;100.00;96170.44;5086254;28;19954;-71
2023/11/07 02:21:59;;;;;;;;;;;;;;;4.40;100.00;96170.00;5086402;28;19971;-79
2023/11/07 02:24:28;;;;;;;;;;;;;;;4.39;100.00;96178.75;5086220;28;19954;-80
2023/11/07 02:26:55;;;;;;;;;;;;;;;4.38;100.00;96177.97;5085767;28;19956;-80
2023/11/07 02:29:21;;;;;;;;;;;;;;;4.40;100.00;96177.78;5086452;28;19957;-80
2023/11/07 02:31:47;;;;;;;;;;;;;;;4.41;100.00;96176.78;5086431;28;19959;-80
2023/11/07 02:34:13;;;;;;;;;;;;;;;4.42;100.00;96174.00;5086370;28;19954;-80
2023/11/07 02:36:39;;;;;;;;;;;;;;;4.44;100.00;96169.44;5084506;28;19958;-79
2023/11/07 02:39:08;;;;;;;;;;;;;;;4.46;100.00;96170.06;5085684;28;20121;-75
2023/11/07 02:41:34;;;;;;;;;;;;;;;4.48;100.00;96169.88;5086268;28;19966;-76
2023/11/07 02:44:00;;;;;;;;;;;;;;;4.50;100.00;96175.69;5086060;28;19955;-80
2023/11/07 02:46:26;;;;;;;;;;;;;;;4.53;100.00;96175.31;5068282;28;19962;-80
2023/11/07 02:48:52;;;;;;;;;;;;;;;4.54;100.00;96174.31;5068186;28;19958;-80
2023/11/07 02:51:18;;;;;;;;;;;;;;;4.54;100.00;96174.31;5085887;28;19956;-77
2023/11/07 02:53:47;;;;;;;;;;;;;;;4.53;100.00;96166.72;5085652;28;19957;-75
2023/11/07 02:56:13;;;;;;;;;;;;;;;4.55;100.00;96169.94;5085615;28;19955;-78
2023/11/07 02:58:39;;;;;;;;;;;;;;;4.55;100.00;96172.53;5085673;28;20259;-69
2023/11/07 03:01:06;;;;;;;;;;;;;;;4.56;100.00;96166.34;5086121;28;20258;-73
2023/11/07 03:03:32;;;;;;;;;;;;;;;4.56;100.00;96164.56;5085663;28;19958;-74
2023/11/07 03:05:58;;;;;;;;;;;;;;;4.56;100.00;96166.34;5085029;28;19956;-72
2023/11/07 03:08:23;;;;;;;;;;;;;;;4.54;100.00;96161.34;5085284;28;20234;-73
2023/11/07 03:10:49;;;;;;;;;;;;;;;4.53;100.00;96156.31;5085071;28;19960;-73
2023/11/07 03:13:18;;;;;;;;;;;;;;;4.51;100.00;96164.28;5085620;28;19955;-74
2023/11/07 03:15:44;;;;;;;;;;;;;;;4.49;100.00;96166.28;5085119;28;20234;-72
2023/11/07 03:18:10;;;;;;;;;;;;;;;4.46;100.00;96158.88;5085143;28;19950;-71
2023/11/07 03:20:36;;;;;;;;;;;;;;;4.44;100.00;96160.84;5085008;28;19972;-75
2023/11/07 03:23:02;;;;;;;;;;;;;;;4.43;100.00;96159.22;5085329;28;19968;-73
2023/11/07 03:25:28;;;;;;;;;;;;;;;4.40;100.00;96154.41;5085035;28;19952;-73
2023/11/07 03:27:54;;;;;;;;;;;;;;;4.38;100.00;96162.38;5085129;28;20135;-73
2023/11/07 03:30:21;;;;;;;;;;;;;;;4.36;100.00;96166.97;5085059;28;19951;-73
2023/11/07 03:32:46;;;;;;;;;;;;;;;4.33;100.00;96169.16;5085008;28;20157;-74
2023/11/07 03:35:12;;;;;;;;;;;;;;;4.27;100.00;96170.69;5084976;28;19952;-72
2023/11/07 03:37:39;;;;;;;;;;;;;;;4.25;100.00;96173.44;5084531;28;19943;-74
2023/11/07 03:40:06;;;;;;;;;;;;;;;4.25;100.00;96164.88;5084710;28;19954;-74
2023/11/07 03:42:32;;;;;;;;;;;;;;;4.24;100.00;96179.63;5084904;28;20162;-75
2023/11/07 03:44:58;;;;;;;;;;;;;;;4.22;100.00;96171.22;5084680;28;20106;-75
2023/11/07 03:47:24;;;;;;;;;;;;;;;4.21;100.00;96179.19;5084530;28;19952;-74
2023/11/07 03:49:51;;;;;;;;;;;;;;;4.20;100.00;96172.38;5084542;28;19955;-75
2023/11/07 03:52:17;;;;;;;;;;;;;;;4.16;100.00;96171.16;5084923;28;19953;-72
2023/11/07 03:54:43;;;;;;;;;;;;;;;4.11;100.00;96174.28;5084662;28;20027;-72
2023/11/07 03:57:09;;;;;;;;;;;;;;;4.09;100.00;96170.28;5084816;28;19955;-71
2023/11/07 03:59:35;;;;;;;;;;;;;;;4.06;100.00;96174.84;5084782;28;19969;-71
2023/11/07 04:02:03;;;;;;;;;;;;;;;4.04;100.00;96169.03;5084191;28;20275;-71
2023/11/07 04:04:28;;;;;;;;;;;;;;;4.05;100.00;96178.44;5084622;28;20233;-71
2023/11/07 04:06:54;;;;;;;;;;;;;;;4.05;100.00;96175.84;5084587;28;19935;-71
2023/11/07 04:09:21;;;;;;;;;;;;;;;4.06;100.00;96187.03;5084615;28;19955;-71
2023/11/07 04:11:47;;;;;;;;;;;;;;;4.05;100.00;96183.63;5084636;28;20157;-74
2023/11/07 04:14:15;;;;;;;;;;;;;;;4.07;100.00;96179.06;5084576;28;19956;-80
2023/11/07 04:16:41;;;;;;;;;;;;;;;4.07;100.00;96181.66;5084265;28;19959;-79
2023/11/07 04:19:07;;;;;;;;;;;;;;;4.04;100.00;96187.19;5084634;28;19989;-78
2023/11/07 04:21:33;;;;;;;;;;;;;;;4.01;100.00;96186.75;5083041;28;19971;-79
2023/11/07 04:23:59;;;;;;;;;;;;;;;3.98;100.00;96187.13;5083224;28;20153;-79
2023/11/07 04:26:27;;;;;;;;;;;;;;;3.99;100.00;96188.72;5084385;28;19952;-79
2023/11/07 04:28:53;;;;;;;;;;;;;;;3.98;100.00;96185.34;5084407;28;19955;-73
2023/11/07 04:31:19;;;;;;;;;;;;;;;3.99;100.00;96184.38;5084417;28;19957;-68
2023/11/07 04:33:45;;;;;;;;;;;;;;;4.00;100.00;96182.56;5084374;28;19953;-73
2023/11/07 04:36:12;;;;;;;;;;;;;;;4.02;100.00;96178.78;5084523;28;19992;-72
2023/11/07 04:38:41;;;;;;;;;;;;;;;4.04;100.00;96169.03;5083894;28;20149;-71
2023/11/07 04:41:07;;;;;;;;;;;;;;;4.05;100.00;96173.25;5083808;28;19960;-71
2023/11/07 04:43:35;;;;;;;;;;;;;;;4.08;100.00;96161.69;5083965;28;19960;-71
2023/11/07 04:46:02;;;;;;;;;;;;;;;4.07;100.00;96162.66;5083906;28;19953;-71
2023/11/07 04:48:30;;;;;;;;;;;;;;;4.09;100.00;96162.50;5083992;28;19957;-79
2023/11/07 04:50:57;;;;;;;;;;;;;;;4.07;100.00;96168.69;5083959;28;20151;-71
2023/11/07 04:53:23;;;;;;;;;;;;;;;4.06;100.00;96159.28;5084146;28;19958;-72
2023/11/07 04:55:49;;;;;;;;;;;;;;;4.05;100.00;96162.06;5084069;28;19974;-73
2023/11/07 04:58:16;;;;;;;;;;;;;;;4.05;100.00;96159.47;5084184;28;20264;-72
2023/11/07 05:00:42;;;;;;;;;;;;;;;4.03;100.00;96162.25;5083487;28;19956;-71
2023/11/07 05:03:08;;;;;;;;;;;;;;;4.02;100.00;96160.63;5083582;28;19939;-72
2023/11/07 05:05:34;;;;;;;;;;;;;;;4.02;100.00;96176.19;5083632;28;19955;-73
2023/11/07 05:08:00;;;;;;;;;;;;;;;4.01;100.00;96172.00;5084284;28;20133;-73
2023/11/07 05:10:26;;;;;;;;;;;;;;;4.02;100.00;96178.00;5084036;28;19956;-69
2023/11/07 05:12:52;;;;;;;;;;;;;;;4.01;100.00;96176.38;5083706;28;20010;-70
2023/11/07 05:15:17;;;;;;;;;;;;;;;3.97;100.00;96170.78;5087365;28;19955;-70
2023/11/07 05:17:43;;;;;;;;;;;;;;;3.96;100.00;96171.75;5087511;28;20278;-70
2023/11/07 05:20:10;;;;;;;;;;;;;;;3.93;100.00;96172.13;5087441;28;20146;-70
2023/11/07 05:22:36;;;;;;;;;;;;;;;3.91;100.00;96168.09;5087423;28;19963;-69
2023/11/07 05:25:07;;;;;;;;;;;;;;;3.88;100.00;96171.06;5087492;28;20232;-72
2023/11/07 05:27:33;;;;;;;;;;;;;;;3.83;100.00;96163.81;5087546;28;19945;-79
2023/11/07 05:29:59;;;;;;;;;;;;;;;3.82;100.00;96165.63;5086892;28;19958;-78
2023/11/07 05:32:24;;;;;;;;;;;;;;;3.82;100.00;96154.41;5087405;28;20102;-79
2023/11/07 05:34:50;;;;;;;;;;;;;;;3.81;100.00;96164.00;5087077;28;19961;-80
2023/11/07 05:37:17;;;;;;;;;;;;;;;3.82;100.00;96164.78;5087357;28;19950;-81
2023/11/07 05:39:44;;;;;;;;;;;;;;;3.82;100.00;96167.38;5087156;28;19963;-76
2023/11/07 05:42:10;;;;;;;;;;;;;;;3.80;100.00;96165.00;5087537;28;19956;-76
2023/11/07 05:44:36;;;;;;;;;;;;;;;3.78;100.00;96163.53;5086981;28;19961;-76
2023/11/07 05:47:03;;;;;;;;;;;;;;;3.76;100.00;96171.53;5085725;28;19973;-77
2023/11/07 05:49:29;;;;;;;;;;;;;;;3.75;100.00;96158.72;5087054;28;19963;-76
2023/11/07 05:51:56;;;;;;;;;;;;;;;3.74;100.00;96164.88;5087002;28;19951;-76
2023/11/07 05:54:22;;;;;;;;;;;;;;;3.73;100.00;96163.28;5087049;28;19955;-73
2023/11/07 05:56:49;;;;;;;;;;;;;;;3.71;100.00;96163.47;5086986;28;19957;-74
2023/11/07 05:59:14;;;;;;;;;;;;;;;3.72;100.00;96167.69;5086878;28;19958;-74
2023/11/07 06:01:40;;;;;;;;;;;;;;;3.71;100.00;96167.84;5086372;28;20151;-69
2023/11/07 06:04:07;;;;;;;;;;;;;;;3.69;100.00;96164.66;5086445;28;20298;-74
2023/11/07 06:06:32;;;;;;;;;;;;;;;3.67;100.00;96167.41;5086673;28;19977;-74
2023/11/07 06:08:58;;;;;;;;;;;;;;;3.64;100.00;96171.19;5086434;28;20158;-76
2023/11/07 06:11:24;;;;;;;;;;;;;;;3.63;100.00;96174.78;5086782;28;19988;-75
2023/11/07 06:13:50;;;;;;;;;;;;;;;3.62;100.00;96178.34;5086810;28;19956;-77
2023/11/07 06:16:16;;;;;;;;;;;;;;;3.63;100.00;96179.13;5086410;28;19950;-75
2023/11/07 06:18:41;;;;;;;;;;;;;;;3.62;100.00;96183.50;5086414;28;19949;-76
2023/11/07 06:21:08;;;;;;;;;;;;;;;3.64;100.00;96186.72;5086622;28;20189;-79
2023/11/07 06:23:34;;;;;;;;;;;;;;;3.66;100.00;96194.34;5085017;28;19960;-69
2023/11/07 06:26:00;;;;;;;;;;;;;;;3.68;100.00;96187.19;5086085;28;20107;-69
2023/11/07 06:28:28;;;;;;;;;;;;;;;3.72;100.00;96195.41;5086478;28;19953;-69
2023/11/07 06:30:56;;;;;;;;;;;;;;;3.75;100.00;96188.06;5085761;28;19947;-70
2023/11/07 06:33:22;;;;;;;;;;;;;;;3.78;100.00;96192.91;5085912;28;19955;-69
2023/11/07 06:35:49;;;;;;;;;;;;;;;3.81;100.00;96189.94;5086163;28;19999;-69
2023/11/07 06:50:56;;;;;;;;;;;;;;;4.01;100.00;96203.16;5143396;27;19941;-75
2023/11/07 06:53:22;;;;;;;;;;;;;;;4.06;100.00;96207.78;5142393;28;20121;-76
2023/11/07 06:55:47;;;;;;;;;;;;;;;4.13;100.00;96210.44;5142344;28;19938;-75
2023/11/07 06:58:13;;;;;;;;;;;;;;;4.48;100.00;96211.41;5142555;28;19935;-76
2023/11/07 07:00:39;;;;;;;;;;;;;;;5.36;100.00;96211.13;5142452;28;19955;-73
2023/11/07 07:03:05;;;;;;;;;;;;;;;5.86;100.00;96217.00;5142686;28;19979;-72
2023/11/07 07:05:31;;;;;;;;;;;;;;;5.88;100.00;96223.63;5142182;28;19946;-73
2023/11/07 07:07:57;;;;;;;;;;;;;;;5.92;100.00;96226.59;5141966;28;19933;-73
2023/11/07 07:10:23;;;;;;;;;;;;;;;5.84;100.00;96224.19;5142832;28;19984;-72
2023/11/07 07:12:49;;;;;;;;;;;;;;;5.73;100.00;96228.13;5142047;28;19933;-73
2023/11/07 07:15:15;;;;;;;;;;;;;;;5.75;100.00;96220.94;5141945;28;19989;-73
2023/11/07 07:17:41;;;;;;;;;;;;;;;5.75;100.00;96231.34;5141933;28;19932;-83
2023/11/07 07:20:13;;;;;;;;;;;;;;;5.70;100.00;96237.13;5141791;28;19958;-80
2023/11/07 07:22:39;;;;;;;;;;;;;;;5.57;100.00;96238.88;5141091;28;20055;-81
2023/11/07 07:25:05;;;;;;;;;;;;;;;5.54;100.00;96237.41;5141377;28;19939;-80
2023/11/07 07:27:33;;;;;;;;;;;;;;;5.70;100.00;96239.72;5141053;28;19938;-82
2023/11/07 07:30:02;;;;;;;;;;;;;;;5.93;100.00;96237.84;5142476;28;19936;-81
2023/11/07 07:32:27;;;;;;;;;;;;;;;6.04;100.00;96239.91;5141647;28;19933;-82
2023/11/07 07:34:53;;;;;;;;;;;;;;;6.18;100.00;96246.78;5142399;28;20096;-73
2023/11/07 07:37:20;;;;;;;;;;;;;;;6.56;100.00;96237.69;5140327;28;20130;-73
2023/11/07 07:39:46;;;;;;;;;;;;;;;6.84;100.00;96237.50;5142572;28;19955;-78
2023/11/07 07:42:12;;;;;;;;;;;;;;;7.19;100.00;96238.13;5141799;28;20091;-76
2023/11/07 07:44:38;;;;;;;;;;;;;;;7.44;100.00;96240.94;5141405;28;19953;-75
2023/11/07 07:47:04;;;;;;;;;;;;;;;7.31;100.00;96248.78;5142160;28;19945;-76
2023/11/07 07:49:30;;;;;;;;;;;;;;;7.10;100.00;96247.19;5141128;28;19958;-76
2023/11/07 07:52:09;;;;;;;;;;;;;;;6.90;100.00;96250.56;5127568;28;20014;-75
2023/11/07 07:54:37;;;;;;;;;;;;;;;6.73;100.00;96249.34;5128059;28;19936;-76
2023/11/07 07:57:05;;;;;;;;;;;;;;;6.61;100.00;96256.13;5127501;28;19939;-72
2023/11/07 07:59:31;;;;;;;;;;;;;;;6.52;100.00;96257.31;5126208;28;19949;-71
2023/11/07 08:01:57;;;;;;;;;;;;;;;6.48;100.00;96256.91;5127905;28;19936;-71
2023/11/07 08:04:24;;;;;;;;;;;;;;;6.44;100.00;96251.25;5127263;28;19935;-71
2023/11/07 08:06:50;;;;;;;;;;;;;;;6.41;100.00;96251.66;5127890;28;19945;-71
2023/11/07 08:09:18;;;;;;;;;;;;;;;6.37;100.00;96247.84;5127462;28;19926;-71
2023/11/07 08:11:45;;;;;;;;;;;;;;;6.33;100.00;96254.44;5127623;28;19942;-77
2023/11/07 08:14:11;;;;;;;;;;;;;;;6.30;100.00;96255.66;5127140;28;19936;-71
2023/11/07 08:16:37;;;;;;;;;;;;;;;6.30;100.00;96260.06;5127002;28;19931;-75
2023/11/07 08:19:03;;;;;;;;;;;;;;;6.32;100.00;96246.81;5126353;28;19950;-75
2023/11/07 08:21:29;;;;;;;;;;;;;;;6.36;100.00;96254.03;5127719;28;19950;-76
2023/11/07 08:23:55;;;;;;;;;;;;;;;6.38;100.00;96249.44;5126928;28;19925;-75
2023/11/07 08:26:22;;;;;;;;;;;;;;;6.44;100.00;96255.69;5126842;28;19935;-75
2023/11/07 08:28:48;;;;;;;;;;;;;;;6.58;100.00;96249.50;5126833;28;19951;-75
2023/11/07 08:31:14;;;;;;;;;;;;;;;6.71;100.00;96251.34;5127654;28;20294;-76
2023/11/07 08:33:42;;;;;;;;;;;;;;;6.77;100.00;96253.16;5127328;28;19940;-72
2023/11/07 08:36:09;;;;;;;;;;;;;;;6.79;100.00;96261.56;5126772;28;20224;-72
2023/11/07 08:38:38;;;;;;;;;;;;;;;6.81;100.00;96256.97;5126872;28;20111;-72
2023/11/07 08:41:04;;;;;;;;;;;;;;;6.82;100.00;96255.16;5127448;28;19935;-72
2023/11/07 08:43:31;;;;;;;;;;;;;;;6.83;100.00;96251.56;5126500;28;19956;-72
2023/11/07 08:45:56;;;;;;;;;;;;;;;6.85;100.00;96245.16;5126585;28;19947;-72
2023/11/07 08:48:23;;;;;;;;;;;;;;;6.88;100.00;96249.94;5126123;28;19933;-78
2023/11/07 08:50:51;;;;;;;;;;;;;;;6.93;100.00;96257.19;5126309;28;19973;-76
2023/11/07 08:53:18;;;;;;;;;;;;;;;6.99;100.00;96250.34;5126365;28;19941;-67
2023/11/07 08:55:44;;;;;;;;;;;;;;;7.21;100.00;96257.00;5126331;28;19954;-69
2023/11/07 08:58:10;;;;;;;;;;;;;;;7.84;100.00;96253.09;5127130;28;20114;-70
2023/11/07 09:00:36;;;;;;;;;;;;;;;8.14;100.00;96263.84;5126138;28;19954;-70
2023/11/07 09:03:02;;;;;;;;;;;;;;;8.16;100.00;96258.41;5125219;28;19939;-70
2023/11/07 09:05:28;;;;;;;;;;;;;;;8.04;100.00;96266.91;5126696;28;19933;-70
2023/11/07 09:07:54;;;;;;;;;;;;;;;7.96;100.00;96263.69;5126359;28;19937;-77
2023/11/07 09:10:20;;;;;;;;;;;;;;;8.06;100.00;96269.28;5126072;28;19937;-70
2023/11/07 09:12:46;;;;;;;;;;;;;;;8.37;100.00;96268.56;5126755;28;19945;-72
2023/11/07 09:15:12;;;;;;;;;;;;;;;8.42;100.00;96268.78;5124857;28;19941;-73
2023/11/07 09:17:39;;;;;;;;;;;;;;;8.37;100.00;96268.56;5125817;28;20114;-73
2023/11/07 09:20:06;;;;;;;;;;;;;;;8.32;100.00;96273.63;5126316;28;20136;-74
2023/11/07 09:22:32;;;;;;;;;;;;;;;8.28;100.00;96283.69;5125757;28;19940;-74
2023/11/07 09:24:57;;;;;;;;;;;;;;;8.27;100.00;96278.66;5124676;28;19939;-73
2023/11/07 09:27:23;;;;;;;;;;;;;;;8.27;100.00;96284.72;5126310;28;20018;-75
2023/11/07 09:29:55;;;;;;;;;;;;;;;8.32;100.00;96279.66;5126445;28;19936;-73
2023/11/07 09:32:22;;;;;;;;;;;;;;;8.45;100.00;96283.25;5126210;28;19936;-73
2023/11/07 09:34:48;;;;;;;;;;;;;;;8.66;100.00;96280.31;5125785;28;19935;-73
2023/11/07 09:37:15;;;;;;;;;;;;;;;8.85;100.00;96275.19;5125522;28;19973;-73
2023/11/07 09:39:41;;;;;;;;;;;;;;;8.98;100.00;96277.72;5125683;28;19959;-73
2023/11/07 09:42:07;;;;;;;;;;;;;;;9.07;100.00;96284.31;5125381;28;19972;-73
2023/11/07 09:44:35;;;;;;;;;;;;;;;9.17;100.00;96260.28;5124869;28;19956;-71
2023/11/07 09:47:03;;;;;;;;;;;;;;;9.27;100.00;96251.97;5125795;28;19935;-74
2023/11/07 09:49:29;;;;;;;;;;;;;;;9.42;100.00;96270.75;5123995;28;19967;-75
2023/11/07 09:51:58;;;;;;;;;;;;;;;9.48;100.00;96279.56;5125230;28;20026;-74
2023/11/07 09:54:24;;;;;;;;;;;;;;;9.45;100.00;96265.09;5125204;28;20117;-72
2023/11/07 09:56:52;;;;;;;;;;;;;;;9.39;100.00;96276.41;5125138;28;19934;-74
2023/11/07 09:59:29;;;;;;;;;;;;;;;9.34;100.00;96273.63;5125007;28;19955;-74
2023/11/07 10:01:55;;;;;;;;;;;;;;;9.28;100.00;96279.72;5125621;28;19927;-74
2023/11/07 10:04:21;;;;;;;;;;;;;;;9.28;100.00;96279.72;5125262;28;19941;-73
2023/11/07 10:06:47;;;;;;;;;;;;;;;9.37;100.00;96282.88;5125739;28;19935;-71
2023/11/07 10:09:15;;;;;;;;;;;;;;;9.39;100.00;96278.25;5124915;28;19934;-71
2023/11/07 10:11:45;;;;;;;;;;;;;;;9.39;100.00;96283.47;5124895;28;20131;-71
2023/11/07 10:14:11;;;;;;;;;;;;;;;9.45;100.00;96298.28;5124661;28;19939;-73
2023/11/07 10:16:41;;;;;;;;;;;;;;;9.72;100.00;96291.00;5124827;28;20293;-74
2023/11/07 10:19:14;;;;;;;;;;;;;;;9.96;100.00;96300.66;5125572;28;19955;-73
2023/11/07 10:21:40;;;;;;;;;;;;;;;10.18;100.00;96309.91;5124775;28;19941;-77
2023/11/07 10:24:06;;;;;;;;;;;;;;;10.53;100.00;96287.34;5123736;28;19936;-74
2023/11/07 10:26:31;;;;;;;;;;;;;;;10.61;100.00;96265.25;5124750;28;19943;-70
2023/11/07 10:29:24;;;;;;;;;;;;;;;10.53;100.00;96268.97;5124652;28;19948;-70
2023/11/07 10:31:57;;;;;;;;;;;;;;;10.35;100.00;96267.22;5125530;28;20036;-69
2023/11/07 10:34:25;;;;;;;;;;;;;;;10.19;100.00;96265.16;5125624;28;19938;-69
2023/11/07 10:36:51;;;;;;;;;;;;;;;10.12;100.00;96294.06;5125203;28;19938;-69
2023/11/07 10:39:21;;;;;;;;;;;;;;;10.09;100.00;96296.31;5124568;28;19955;-74
2023/11/07 10:41:47;;;;;;;;;;;;;;;10.00;100.00;96308.88;5124574;28;19939;-69
2023/11/07 10:44:27;;;;;;;;;;;;;;;9.87;100.00;96312.44;5124555;28;19949;-74
2023/11/07 10:46:53;;;;;;;;;;;;;;;9.66;100.00;96310.19;5125162;28;19932;-73
2023/11/07 10:49:20;;;;;;;;;;;;;;;9.45;100.00;96299.13;5124408;28;19969;-73
2023/11/07 10:51:47;;;;;;;;;;;;;;;9.34;100.00;96308.47;5124527;28;19943;-73
2023/11/07 10:54:13;;;;;;;;;;;;;;;9.26;100.00;96307.91;5124517;28;19937;-73
2023/11/07 10:56:40;;;;;;;;;;;;;;;9.24;100.00;96300.28;5124449;28;20118;-73
2023/11/07 10:59:14;;;;;;;;;;;;;;;9.21;100.00;96298.09;5124895;28;19936;-72
2023/11/07 11:01:41;;;;;;;;;;;;;;;9.22;100.00;96299.69;5125246;28;20225;-83
2023/11/07 11:04:11;;;;;;;;;;;;;;;9.30;100.00;96296.00;5124341;28;19937;-79
2023/11/07 11:06:39;;;;;;;;;;;;;;;9.28;100.00;96290.19;5125196;28;19943;-81
2023/11/07 11:09:06;;;;;;;;;;;;;;;9.23;100.00;96287.41;5124212;28;19936;-81
2023/11/07 11:11:33;;;;;;;;;;;;;;;9.18;100.00;96285.44;5124005;28;19943;-81
2023/11/07 11:13:59;;;;;;;;;;;;;;;9.14;100.00;96279.81;5124525;28;20123;-79
2023/11/07 11:16:26;;;;;;;;;;;;;;;9.14;100.00;96284.25;5124327;28;20096;-73
2023/11/07 11:18:56;;;;;;;;;;;;;;;9.18;100.00;96284.66;5124994;28;19934;-72
2023/11/07 11:21:35;;;;;;;;;;;;;;;9.19;100.00;96287.03;5124231;28;19935;-72
2023/11/07 11:24:13;;;;;;;;;;;;;;;9.14;100.00;96281.66;5124277;28;20085;-72
2023/11/07 11:26:48;;;;;;;;;;;;;;;9.12;100.00;96281.06;5127524;28;19934;-73
2023/11/07 11:29:27;;;;;;;;;;;;;;;9.22;100.00;96278.75;5128905;28;19943;-73
2023/11/07 11:31:54;;;;;;;;;;;;;;;9.30;100.00;96288.16;5128041;28;19944;-73
2023/11/07 11:34:21;;;;;;;;;;;;;;;9.28;100.00;96279.72;5127984;28;19934;-73
2023/11/07 11:36:56;;;;;;;;;;;;;;;9.27;100.00;96281.53;5128726;28;19939;-73
2023/11/07 11:39:33;;;;;;;;;;;;;;;9.27;100.00;96278.91;5128622;28;19954;-71
2023/11/07 11:42:00;;;;;;;;;;;;;;;9.49;100.00;96261.03;5128652;28;19933;-71
2023/11/07 11:44:26;;;;;;;;;;;;;;;9.53;100.00;96271.84;5127865;28;19962;-72
2023/11/07 11:46:52;;;;;;;;;;;;;;;9.48;100.00;96263.84;5127755;28;20126;-71
2023/11/07 11:49:21;;;;;;;;;;;;;;;9.43;100.00;96268.91;5127663;28;20144;-71
2023/11/07 11:51:48;;;;;;;;;;;;;;;9.31;100.00;96267.00;5127627;28;19945;-72
2023/11/07 11:54:20;;;;;;;;;;;;;;;9.26;100.00;96266.03;5127675;28;19994;-73
2023/11/07 11:56:51;;;;;;;;;;;;;;;9.23;100.00;96272.50;5127823;28;19940;-73
2023/11/07 11:59:19;;;;;;;;;;;;;;;9.24;100.00;96266.28;5127624;28;20124;-73
2023/11/07 12:01:49;;;;;;;;;;;;;;;9.27;100.00;96259.81;5109274;28;19943;-73
2023/11/07 12:04:32;;;;;;;;;;;;;;;9.31;100.00;96259.16;5127408;28;19940;-74
2023/11/07 12:09:37;;;;;;;;;;;;;;;9.50;100.00;96248.75;5127296;28;19940;-74
2023/11/07 12:12:03;;;;;;;;;;;;;;;9.57;100.00;96256.53;5127322;28;19931;-74
2023/11/07 12:14:29;;;;;;;;;;;;;;;9.58;100.00;96253.69;5127241;28;19939;-82
2023/11/07 12:17:01;;;;;;;;;;;;;;;9.72;100.00;96254.34;5127632;28;19941;-82
2023/11/07 12:19:30;;;;;;;;;;;;;;;9.86;100.00;96228.84;5127495;28;19963;-81
2023/11/07 12:21:56;;;;;;;;;;;;;;;10.06;100.00;96247.75;5127550;28;19941;-83
2023/11/07 12:24:23;;;;;;;;;;;;;;;10.13;100.00;96238.00;5126978;28;19939;-83
2023/11/07 12:26:49;;;;;;;;;;;;;;;10.13;100.00;96240.63;5127766;28;19941;-82
2023/11/07 12:29:31;;;;;;;;;;;;;;;10.04;100.00;96244.56;5127209;28;19934;-69
2023/11/07 12:31:57;;;;;;;;;;;;;;;9.92;100.00;96220.91;5127761;28;19944;-72
2023/11/07 12:34:33;;;;;;;;;;;;;;;9.80;100.00;96235.75;5126890;28;19938;-74
2023/11/07 12:37:07;;;;;;;;;;;;;;;9.77;100.00;96230.16;5127537;28;19945;-74
2023/11/07 12:39:34;;;;;;;;;;;;;;;9.84;100.00;96241.34;5127540;28;19950;-75
2023/11/07 12:42:00;;;;;;;;;;;;;;;9.90;100.00;96253.56;5126694;28;19967;-74
2023/11/07 12:44:27;;;;;;;;;;;;;;;9.96;100.00;96232.53;5126586;28;19953;-73
2023/11/07 12:46:53;;;;;;;;;;;;;;;10.06;100.00;96254.84;5127134;28;19935;-74
2023/11/07 12:49:19;;;;;;;;;;;;;;;10.09;100.00;96247.31;5125331;28;19987;-74
2023/11/07 12:51:46;;;;;;;;;;;;;;;10.06;100.00;96210.28;5126764;28;19939;-76
2023/11/07 12:54:12;;;;;;;;;;;;;;;9.96;100.00;96223.91;5126526;28;19989;-76
2023/11/07 12:56:45;;;;;;;;;;;;;;;9.86;100.00;96240.09;5126359;28;19943;-77
2023/11/07 12:59:15;;;;;;;;;;;;;;;9.75;100.00;96217.28;5127130;28;19938;-76